sensor_id;sensor_type;location;lat;lon;timestamp;P1;durP1;ratioP1;P2;durP2;ratioP2
21034;SDS011;10676;50.848;3.272;2023-05-20T00:00:35;38.45;;;19.40;;
21034;SDS011;10676;50.848;3.272;2023-05-20T00:03:03;41.47;;;20.08;;
21034;SDS011;10676;50.848;3.272;2023-05-20T00:05:29;36.70;;;20.35;;
21034;SDS011;10676;50.848;3.272;2023-05-20T00:07:55;41.63;;;21.23;;
21034;SDS011;10676;50.848;3.272;2023-05-20T00:10:20;47.83;;;22.25;;
21034;SDS011;10676;50.848;3.272;2023-05-20T00:12:46;40.72;;;21.50;;
21034;SDS011;10676;50.848;3.272;2023-05-20T00:15:12;40.10;;;23.33;;
21034;SDS011;10676;50.848;3.272;2023-05-20T00:17:37;42.25;;;21.88;;
21034;SDS011;10676;50.848;3.272;2023-05-20T00:20:03;49.53;;;23.48;;
21034;SDS011;10676;50.848;3.272;2023-05-20T00:22:29;39.47;;;23.40;;
21034;SDS011;10676;50.848;3.272;2023-05-20T00:24:57;45.40;;;23.48;;
21034;SDS011;10676;50.848;3.272;2023-05-20T00:27:22;47.53;;;24.65;;
21034;SDS011;10676;50.848;3.272;2023-05-20T00:29:48;47.03;;;24.05;;
21034;SDS011;10676;50.848;3.272;2023-05-20T00:32:14;48.42;;;25.00;;
21034;SDS011;10676;50.848;3.272;2023-05-20T00:34:41;42.30;;;23.90;;
21034;SDS011;10676;50.848;3.272;2023-05-20T00:37:07;50.92;;;26.67;;
21034;SDS011;10676;50.848;3.272;2023-05-20T00:39:33;48.45;;;25.13;;
21034;SDS011;10676;50.848;3.272;2023-05-20T00:41:58;52.28;;;27.15;;
21034;SDS011;10676;50.848;3.272;2023-05-20T00:44:26;48.92;;;26.90;;
21034;SDS011;10676;50.848;3.272;2023-05-20T00:46:52;56.35;;;27.38;;
21034;SDS011;10676;50.848;3.272;2023-05-20T00:49:19;52.15;;;25.77;;
21034;SDS011;10676;50.848;3.272;2023-05-20T00:51:46;52.00;;;26.23;;
21034;SDS011;10676;50.848;3.272;2023-05-20T00:54:12;51.67;;;27.60;;
21034;SDS011;10676;50.848;3.272;2023-05-20T00:56:38;47.33;;;27.58;;
21034;SDS011;10676;50.848;3.272;2023-05-20T00:59:05;49.53;;;27.67;;
21034;SDS011;10676;50.848;3.272;2023-05-20T01:01:30;50.30;;;27.85;;
21034;SDS011;10676;50.848;3.272;2023-05-20T01:03:58;55.40;;;28.75;;
21034;SDS011;10676;50.848;3.272;2023-05-20T01:06:24;50.90;;;28.23;;
21034;SDS011;10676;50.848;3.272;2023-05-20T01:08:50;48.42;;;26.50;;
21034;SDS011;10676;50.848;3.272;2023-05-20T01:11:21;51.45;;;28.70;;
21034;SDS011;10676;50.848;3.272;2023-05-20T01:13:56;50.67;;;27.30;;
21034;SDS011;10676;50.848;3.272;2023-05-20T01:16:25;53.67;;;28.30;;
21034;SDS011;10676;50.848;3.272;2023-05-20T01:18:53;60.17;;;28.98;;
21034;SDS011;10676;50.848;3.272;2023-05-20T01:21:21;49.72;;;28.50;;
21034;SDS011;10676;50.848;3.272;2023-05-20T01:23:47;45.15;;;27.38;;
21034;SDS011;10676;50.848;3.272;2023-05-20T01:26:13;54.47;;;28.55;;
21034;SDS011;10676;50.848;3.272;2023-05-20T01:28:39;50.50;;;28.17;;
21034;SDS011;10676;50.848;3.272;2023-05-20T01:31:17;52.20;;;28.67;;
21034;SDS011;10676;50.848;3.272;2023-05-20T01:33:48;51.40;;;27.73;;
21034;SDS011;10676;50.848;3.272;2023-05-20T01:36:20;55.55;;;27.17;;
21034;SDS011;10676;50.848;3.272;2023-05-20T01:38:48;48.70;;;26.67;;
21034;SDS011;10676;50.848;3.272;2023-05-20T01:41:15;44.80;;;25.38;;
21034;SDS011;10676;50.848;3.272;2023-05-20T01:43:42;45.08;;;24.95;;
21034;SDS011;10676;50.848;3.272;2023-05-20T01:46:09;47.33;;;26.75;;
21034;SDS011;10676;50.848;3.272;2023-05-20T01:48:34;46.15;;;26.15;;
21034;SDS011;10676;50.848;3.272;2023-05-20T01:51:03;49.75;;;25.30;;
21034;SDS011;10676;50.848;3.272;2023-05-20T01:53:29;45.95;;;24.73;;
21034;SDS011;10676;50.848;3.272;2023-05-20T01:55:54;38.45;;;24.88;;
21034;SDS011;10676;50.848;3.272;2023-05-20T01:58:20;44.45;;;25.25;;
21034;SDS011;10676;50.848;3.272;2023-05-20T02:00:46;47.03;;;23.42;;
21034;SDS011;10676;50.848;3.272;2023-05-20T02:03:11;42.42;;;23.27;;
21034;SDS011;10676;50.848;3.272;2023-05-20T02:05:37;37.78;;;24.10;;
21034;SDS011;10676;50.848;3.272;2023-05-20T02:08:03;43.75;;;24.42;;
21034;SDS011;10676;50.848;3.272;2023-05-20T02:10:28;46.03;;;24.45;;
21034;SDS011;10676;50.848;3.272;2023-05-20T02:12:54;39.53;;;24.30;;
21034;SDS011;10676;50.848;3.272;2023-05-20T02:15:21;48.15;;;24.08;;
21034;SDS011;10676;50.848;3.272;2023-05-20T02:17:47;41.92;;;23.15;;
21034;SDS011;10676;50.848;3.272;2023-05-20T02:20:13;38.38;;;23.02;;
21034;SDS011;10676;50.848;3.272;2023-05-20T02:22:40;36.13;;;22.77;;
21034;SDS011;10676;50.848;3.272;2023-05-20T02:25:06;38.90;;;22.70;;
21034;SDS011;10676;50.848;3.272;2023-05-20T02:27:32;31.73;;;22.88;;
21034;SDS011;10676;50.848;3.272;2023-05-20T02:29:59;35.38;;;22.00;;
21034;SDS011;10676;50.848;3.272;2023-05-20T02:32:28;37.22;;;23.23;;
21034;SDS011;10676;50.848;3.272;2023-05-20T02:34:54;35.28;;;22.95;;
21034;SDS011;10676;50.848;3.272;2023-05-20T02:37:19;34.20;;;21.33;;
21034;SDS011;10676;50.848;3.272;2023-05-20T02:39:45;38.38;;;20.80;;
21034;SDS011;10676;50.848;3.272;2023-05-20T02:42:11;33.75;;;22.67;;
21034;SDS011;10676;50.848;3.272;2023-05-20T02:44:37;30.13;;;22.70;;
21034;SDS011;10676;50.848;3.272;2023-05-20T02:47:03;32.70;;;21.20;;
21034;SDS011;10676;50.848;3.272;2023-05-20T02:49:28;35.33;;;21.38;;
21034;SDS011;10676;50.848;3.272;2023-05-20T02:51:54;32.90;;;21.75;;
21034;SDS011;10676;50.848;3.272;2023-05-20T02:54:20;30.63;;;20.42;;
21034;SDS011;10676;50.848;3.272;2023-05-20T02:56:46;32.78;;;22.45;;
21034;SDS011;10676;50.848;3.272;2023-05-20T02:59:12;29.58;;;21.85;;
21034;SDS011;10676;50.848;3.272;2023-05-20T03:01:37;31.48;;;21.73;;
21034;SDS011;10676;50.848;3.272;2023-05-20T03:04:04;34.20;;;20.83;;
21034;SDS011;10676;50.848;3.272;2023-05-20T03:06:30;33.63;;;20.05;;
21034;SDS011;10676;50.848;3.272;2023-05-20T03:08:56;33.25;;;21.08;;
21034;SDS011;10676;50.848;3.272;2023-05-20T03:11:22;30.05;;;20.23;;
21034;SDS011;10676;50.848;3.272;2023-05-20T03:13:48;33.40;;;22.08;;
21034;SDS011;10676;50.848;3.272;2023-05-20T03:16:13;34.17;;;19.60;;
21034;SDS011;10676;50.848;3.272;2023-05-20T03:18:40;29.50;;;19.95;;
21034;SDS011;10676;50.848;3.272;2023-05-20T03:21:06;30.88;;;20.13;;
21034;SDS011;10676;50.848;3.272;2023-05-20T03:23:33;28.00;;;19.60;;
21034;SDS011;10676;50.848;3.272;2023-05-20T03:25:59;29.63;;;19.92;;
21034;SDS011;10676;50.848;3.272;2023-05-20T03:28:24;32.60;;;20.30;;
21034;SDS011;10676;50.848;3.272;2023-05-20T03:30:50;33.67;;;19.02;;
21034;SDS011;10676;50.848;3.272;2023-05-20T03:33:16;27.33;;;19.60;;
21034;SDS011;10676;50.848;3.272;2023-05-20T03:35:41;31.77;;;19.60;;
21034;SDS011;10676;50.848;3.272;2023-05-20T03:38:07;28.58;;;19.05;;
21034;SDS011;10676;50.848;3.272;2023-05-20T03:40:33;26.23;;;19.90;;
21034;SDS011;10676;50.848;3.272;2023-05-20T03:42:58;30.25;;;19.27;;
21034;SDS011;10676;50.848;3.272;2023-05-20T03:45:24;25.42;;;18.90;;
21034;SDS011;10676;50.848;3.272;2023-05-20T03:47:50;27.17;;;18.37;;
21034;SDS011;10676;50.848;3.272;2023-05-20T03:50:16;29.00;;;17.60;;
21034;SDS011;10676;50.848;3.272;2023-05-20T03:52:41;29.08;;;18.13;;
21034;SDS011;10676;50.848;3.272;2023-05-20T03:55:08;28.77;;;18.00;;
21034;SDS011;10676;50.848;3.272;2023-05-20T03:57:34;26.20;;;18.20;;
21034;SDS011;10676;50.848;3.272;2023-05-20T04:00:00;26.50;;;17.77;;
21034;SDS011;10676;50.848;3.272;2023-05-20T04:02:30;29.23;;;17.05;;
21034;SDS011;10676;50.848;3.272;2023-05-20T04:04:56;23.45;;;17.30;;
21034;SDS011;10676;50.848;3.272;2023-05-20T04:07:22;30.02;;;17.95;;
21034;SDS011;10676;50.848;3.272;2023-05-20T04:09:48;30.92;;;18.25;;
21034;SDS011;10676;50.848;3.272;2023-05-20T04:12:14;31.42;;;18.33;;
21034;SDS011;10676;50.848;3.272;2023-05-20T04:14:39;26.85;;;18.40;;
21034;SDS011;10676;50.848;3.272;2023-05-20T04:17:06;26.73;;;17.58;;
21034;SDS011;10676;50.848;3.272;2023-05-20T04:19:31;28.65;;;18.52;;
21034;SDS011;10676;50.848;3.272;2023-05-20T04:21:58;32.20;;;18.70;;
21034;SDS011;10676;50.848;3.272;2023-05-20T04:24:25;28.27;;;17.95;;
21034;SDS011;10676;50.848;3.272;2023-05-20T04:26:51;22.42;;;17.80;;
21034;SDS011;10676;50.848;3.272;2023-05-20T04:29:17;27.10;;;17.73;;
21034;SDS011;10676;50.848;3.272;2023-05-20T04:31:46;25.63;;;17.88;;
21034;SDS011;10676;50.848;3.272;2023-05-20T04:34:12;20.30;;;16.10;;
21034;SDS011;10676;50.848;3.272;2023-05-20T04:36:39;24.70;;;15.88;;
21034;SDS011;10676;50.848;3.272;2023-05-20T04:39:04;24.45;;;15.32;;
21034;SDS011;10676;50.848;3.272;2023-05-20T04:41:32;24.65;;;15.38;;
21034;SDS011;10676;50.848;3.272;2023-05-20T04:43:57;20.67;;;15.25;;
21034;SDS011;10676;50.848;3.272;2023-05-20T04:46:26;23.67;;;14.63;;
21034;SDS011;10676;50.848;3.272;2023-05-20T04:48:52;22.85;;;15.15;;
21034;SDS011;10676;50.848;3.272;2023-05-20T04:51:18;21.30;;;13.13;;
21034;SDS011;10676;50.848;3.272;2023-05-20T04:53:43;18.95;;;13.52;;
21034;SDS011;10676;50.848;3.272;2023-05-20T04:56:10;20.60;;;13.20;;
21034;SDS011;10676;50.848;3.272;2023-05-20T04:58:36;17.23;;;13.85;;
21034;SDS011;10676;50.848;3.272;2023-05-20T05:01:02;18.80;;;13.70;;
21034;SDS011;10676;50.848;3.272;2023-05-20T05:03:27;22.42;;;13.38;;
21034;SDS011;10676;50.848;3.272;2023-05-20T05:05:56;16.13;;;13.13;;
21034;SDS011;10676;50.848;3.272;2023-05-20T05:08:23;16.55;;;13.85;;
21034;SDS011;10676;50.848;3.272;2023-05-20T05:10:50;17.83;;;13.32;;
21034;SDS011;10676;50.848;3.272;2023-05-20T05:13:16;21.20;;;12.50;;
21034;SDS011;10676;50.848;3.272;2023-05-20T05:15:42;18.27;;;13.00;;
21034;SDS011;10676;50.848;3.272;2023-05-20T05:18:07;19.10;;;12.95;;
21034;SDS011;10676;50.848;3.272;2023-05-20T05:20:33;20.98;;;12.50;;
21034;SDS011;10676;50.848;3.272;2023-05-20T05:22:59;19.88;;;15.63;;
21034;SDS011;10676;50.848;3.272;2023-05-20T05:25:25;17.63;;;14.25;;
21034;SDS011;10676;50.848;3.272;2023-05-20T05:27:51;14.48;;;12.52;;
21034;SDS011;10676;50.848;3.272;2023-05-20T05:30:17;17.15;;;12.73;;
21034;SDS011;10676;50.848;3.272;2023-05-20T05:32:42;15.00;;;13.27;;
21034;SDS011;10676;50.848;3.272;2023-05-20T05:35:08;18.23;;;13.00;;
21034;SDS011;10676;50.848;3.272;2023-05-20T05:37:35;20.23;;;13.48;;
21034;SDS011;10676;50.848;3.272;2023-05-20T05:40:00;20.77;;;16.75;;
21034;SDS011;10676;50.848;3.272;2023-05-20T05:42:27;20.80;;;18.92;;
21034;SDS011;10676;50.848;3.272;2023-05-20T05:44:53;20.50;;;18.40;;
21034;SDS011;10676;50.848;3.272;2023-05-20T05:47:18;20.58;;;18.38;;
21034;SDS011;10676;50.848;3.272;2023-05-20T05:49:44;20.85;;;18.88;;
21034;SDS011;10676;50.848;3.272;2023-05-20T05:52:10;20.38;;;18.27;;
21034;SDS011;10676;50.848;3.272;2023-05-20T05:54:35;23.17;;;20.88;;
21034;SDS011;10676;50.848;3.272;2023-05-20T05:57:01;22.30;;;20.15;;
21034;SDS011;10676;50.848;3.272;2023-05-20T05:59:27;22.83;;;20.67;;
21034;SDS011;10676;50.848;3.272;2023-05-20T06:01:52;25.83;;;23.45;;
21034;SDS011;10676;50.848;3.272;2023-05-20T06:04:18;23.63;;;21.10;;
21034;SDS011;10676;50.848;3.272;2023-05-20T06:06:43;24.20;;;21.75;;
21034;SDS011;10676;50.848;3.272;2023-05-20T06:09:09;23.65;;;21.65;;
21034;SDS011;10676;50.848;3.272;2023-05-20T06:11:35;23.45;;;21.23;;
21034;SDS011;10676;50.848;3.272;2023-05-20T06:14:01;23.73;;;20.75;;
21034;SDS011;10676;50.848;3.272;2023-05-20T06:16:27;21.80;;;19.55;;
21034;SDS011;10676;50.848;3.272;2023-05-20T06:18:52;22.67;;;20.33;;
21034;SDS011;10676;50.848;3.272;2023-05-20T06:21:21;21.70;;;18.38;;
21034;SDS011;10676;50.848;3.272;2023-05-20T06:23:47;21.50;;;18.15;;
21034;SDS011;10676;50.848;3.272;2023-05-20T06:26:13;22.27;;;18.00;;
21034;SDS011;10676;50.848;3.272;2023-05-20T06:28:39;20.67;;;18.58;;
21034;SDS011;10676;50.848;3.272;2023-05-20T06:31:05;21.05;;;19.20;;
21034;SDS011;10676;50.848;3.272;2023-05-20T06:33:30;21.88;;;19.88;;
21034;SDS011;10676;50.848;3.272;2023-05-20T06:35:56;19.98;;;18.35;;
21034;SDS011;10676;50.848;3.272;2023-05-20T06:38:23;20.30;;;18.52;;
21034;SDS011;10676;50.848;3.272;2023-05-20T06:40:48;22.42;;;19.77;;
21034;SDS011;10676;50.848;3.272;2023-05-20T06:43:14;19.15;;;17.58;;
21034;SDS011;10676;50.848;3.272;2023-05-20T06:45:40;20.50;;;17.05;;
21034;SDS011;10676;50.848;3.272;2023-05-20T06:48:06;19.15;;;16.95;;
21034;SDS011;10676;50.848;3.272;2023-05-20T06:50:33;19.35;;;16.70;;
21034;SDS011;10676;50.848;3.272;2023-05-20T06:52:58;17.88;;;16.27;;
21034;SDS011;10676;50.848;3.272;2023-05-20T06:55:25;17.98;;;16.50;;
21034;SDS011;10676;50.848;3.272;2023-05-20T06:57:50;19.30;;;17.40;;
21034;SDS011;10676;50.848;3.272;2023-05-20T07:00:16;18.55;;;16.83;;
21034;SDS011;10676;50.848;3.272;2023-05-20T07:02:42;18.27;;;16.45;;
21034;SDS011;10676;50.848;3.272;2023-05-20T07:05:08;17.80;;;16.02;;
21034;SDS011;10676;50.848;3.272;2023-05-20T07:07:34;18.55;;;16.95;;
21034;SDS011;10676;50.848;3.272;2023-05-20T07:10:00;17.48;;;15.77;;
21034;SDS011;10676;50.848;3.272;2023-05-20T07:12:26;18.08;;;16.23;;
21034;SDS011;10676;50.848;3.272;2023-05-20T07:14:51;16.85;;;15.15;;
21034;SDS011;10676;50.848;3.272;2023-05-20T07:17:17;19.08;;;17.35;;
21034;SDS011;10676;50.848;3.272;2023-05-20T07:19:42;17.75;;;16.15;;
21034;SDS011;10676;50.848;3.272;2023-05-20T07:22:08;18.08;;;16.20;;
21034;SDS011;10676;50.848;3.272;2023-05-20T07:24:35;17.50;;;15.90;;
21034;SDS011;10676;50.848;3.272;2023-05-20T07:27:01;18.58;;;15.98;;
21034;SDS011;10676;50.848;3.272;2023-05-20T07:29:27;17.38;;;15.77;;
21034;SDS011;10676;50.848;3.272;2023-05-20T07:31:52;16.75;;;15.25;;
21034;SDS011;10676;50.848;3.272;2023-05-20T07:34:18;17.45;;;15.65;;
21034;SDS011;10676;50.848;3.272;2023-05-20T07:36:44;16.50;;;14.13;;
21034;SDS011;10676;50.848;3.272;2023-05-20T07:39:09;17.30;;;15.70;;
21034;SDS011;10676;50.848;3.272;2023-05-20T07:41:36;17.98;;;16.17;;
21034;SDS011;10676;50.848;3.272;2023-05-20T07:44:05;18.83;;;15.13;;
21034;SDS011;10676;50.848;3.272;2023-05-20T07:46:33;16.25;;;14.55;;
21034;SDS011;10676;50.848;3.272;2023-05-20T07:48:59;15.88;;;14.70;;
21034;SDS011;10676;50.848;3.272;2023-05-20T07:51:24;17.20;;;15.57;;
21034;SDS011;10676;50.848;3.272;2023-05-20T07:53:50;16.60;;;14.95;;
21034;SDS011;10676;50.848;3.272;2023-05-20T07:56:16;16.52;;;14.80;;
21034;SDS011;10676;50.848;3.272;2023-05-20T07:58:42;17.67;;;15.80;;
21034;SDS011;10676;50.848;3.272;2023-05-20T08:01:15;15.40;;;13.95;;
21034;SDS011;10676;50.848;3.272;2023-05-20T08:03:41;17.10;;;15.35;;
21034;SDS011;10676;50.848;3.272;2023-05-20T08:06:07;16.35;;;15.05;;
21034;SDS011;10676;50.848;3.272;2023-05-20T08:08:32;16.88;;;15.18;;
21034;SDS011;10676;50.848;3.272;2023-05-20T08:10:58;15.55;;;14.13;;
21034;SDS011;10676;50.848;3.272;2023-05-20T08:13:25;16.00;;;14.57;;
21034;SDS011;10676;50.848;3.272;2023-05-20T08:15:52;15.90;;;14.20;;
21034;SDS011;10676;50.848;3.272;2023-05-20T08:18:18;16.27;;;14.93;;
21034;SDS011;10676;50.848;3.272;2023-05-20T08:20:44;16.77;;;15.27;;
21034;SDS011;10676;50.848;3.272;2023-05-20T08:23:10;16.10;;;14.57;;
21034;SDS011;10676;50.848;3.272;2023-05-20T08:25:36;15.93;;;14.38;;
21034;SDS011;10676;50.848;3.272;2023-05-20T08:28:02;16.42;;;15.00;;
21034;SDS011;10676;50.848;3.272;2023-05-20T08:30:29;17.25;;;15.95;;
21034;SDS011;10676;50.848;3.272;2023-05-20T08:32:55;15.68;;;14.27;;
21034;SDS011;10676;50.848;3.272;2023-05-20T08:35:24;14.75;;;13.48;;
21034;SDS011;10676;50.848;3.272;2023-05-20T08:37:50;15.88;;;14.63;;
21034;SDS011;10676;50.848;3.272;2023-05-20T08:40:18;14.70;;;13.40;;
21034;SDS011;10676;50.848;3.272;2023-05-20T08:42:45;16.23;;;14.75;;
21034;SDS011;10676;50.848;3.272;2023-05-20T08:45:14;15.38;;;14.13;;
21034;SDS011;10676;50.848;3.272;2023-05-20T08:47:42;16.45;;;14.75;;
21034;SDS011;10676;50.848;3.272;2023-05-20T08:50:09;16.67;;;15.38;;
21034;SDS011;10676;50.848;3.272;2023-05-20T08:52:36;18.08;;;16.67;;
21034;SDS011;10676;50.848;3.272;2023-05-20T08:55:06;17.38;;;15.90;;
21034;SDS011;10676;50.848;3.272;2023-05-20T08:57:36;18.00;;;15.90;;
21034;SDS011;10676;50.848;3.272;2023-05-20T09:00:03;15.70;;;14.27;;
21034;SDS011;10676;50.848;3.272;2023-05-20T09:02:36;17.95;;;16.23;;
21034;SDS011;10676;50.848;3.272;2023-05-20T09:05:05;15.27;;;13.88;;
21034;SDS011;10676;50.848;3.272;2023-05-20T09:07:31;17.77;;;16.27;;
21034;SDS011;10676;50.848;3.272;2023-05-20T09:09:57;17.17;;;15.45;;
21034;SDS011;10676;50.848;3.272;2023-05-20T09:12:24;14.38;;;13.38;;
21034;SDS011;10676;50.848;3.272;2023-05-20T09:14:49;15.07;;;13.60;;
21034;SDS011;10676;50.848;3.272;2023-05-20T09:17:15;15.20;;;13.98;;
21034;SDS011;10676;50.848;3.272;2023-05-20T09:19:42;14.43;;;13.15;;
21034;SDS011;10676;50.848;3.272;2023-05-20T09:22:08;15.07;;;13.68;;
21034;SDS011;10676;50.848;3.272;2023-05-20T09:24:33;15.02;;;13.63;;
21034;SDS011;10676;50.848;3.272;2023-05-20T09:26:59;14.90;;;13.60;;
21034;SDS011;10676;50.848;3.272;2023-05-20T09:29:25;14.43;;;13.07;;
21034;SDS011;10676;50.848;3.272;2023-05-20T09:31:51;13.23;;;11.98;;
21034;SDS011;10676;50.848;3.272;2023-05-20T09:34:18;13.88;;;12.50;;
21034;SDS011;10676;50.848;3.272;2023-05-20T09:36:45;18.50;;;17.10;;
21034;SDS011;10676;50.848;3.272;2023-05-20T09:39:15;14.07;;;12.98;;
21034;SDS011;10676;50.848;3.272;2023-05-20T09:44:36;14.52;;;13.35;;
21034;SDS011;10676;50.848;3.272;2023-05-20T09:47:02;13.23;;;12.00;;
21034;SDS011;10676;50.848;3.272;2023-05-20T09:49:31;13.25;;;12.25;;
21034;SDS011;10676;50.848;3.272;2023-05-20T09:51:59;12.77;;;11.63;;
21034;SDS011;10676;50.848;3.272;2023-05-20T09:54:27;13.00;;;11.73;;
21034;SDS011;10676;50.848;3.272;2023-05-20T09:56:55;13.13;;;11.73;;
21034;SDS011;10676;50.848;3.272;2023-05-20T09:59:23;15.38;;;14.05;;
21034;SDS011;10676;50.848;3.272;2023-05-20T10:01:50;27.85;;;11.55;;
21034;SDS011;10676;50.848;3.272;2023-05-20T10:04:15;15.18;;;12.20;;
21034;SDS011;10676;50.848;3.272;2023-05-20T10:12:22;12.68;;;11.35;;
21034;SDS011;10676;50.848;3.272;2023-05-20T10:15:21;13.85;;;12.65;;
21034;SDS011;10676;50.848;3.272;2023-05-20T10:18:20;14.18;;;12.70;;
21034;SDS011;10676;50.848;3.272;2023-05-20T10:20:44;15.73;;;14.50;;
21034;SDS011;10676;50.848;3.272;2023-05-20T10:23:19;13.45;;;12.45;;
21034;SDS011;10676;50.848;3.272;2023-05-20T10:25:50;15.48;;;13.95;;
21034;SDS011;10676;50.848;3.272;2023-05-20T10:28:30;13.68;;;12.77;;
21034;SDS011;10676;50.848;3.272;2023-05-20T10:31:00;13.43;;;12.35;;
21034;SDS011;10676;50.848;3.272;2023-05-20T10:33:27;13.40;;;12.40;;
21034;SDS011;10676;50.848;3.272;2023-05-20T10:35:56;14.55;;;13.05;;
21034;SDS011;10676;50.848;3.272;2023-05-20T10:38:23;13.45;;;12.38;;
21034;SDS011;10676;50.848;3.272;2023-05-20T10:40:49;14.73;;;13.35;;
21034;SDS011;10676;50.848;3.272;2023-05-20T10:43:16;13.70;;;12.30;;
21034;SDS011;10676;50.848;3.272;2023-05-20T10:45:51;13.30;;;12.15;;
21034;SDS011;10676;50.848;3.272;2023-05-20T10:48:25;14.20;;;13.10;;
21034;SDS011;10676;50.848;3.272;2023-05-20T10:50:59;13.80;;;12.60;;
21034;SDS011;10676;50.848;3.272;2023-05-20T10:53:28;11.57;;;10.57;;
21034;SDS011;10676;50.848;3.272;2023-05-20T10:56:02;13.20;;;12.38;;
21034;SDS011;10676;50.848;3.272;2023-05-20T10:58:35;13.82;;;12.73;;
21034;SDS011;10676;50.848;3.272;2023-05-20T11:01:01;16.25;;;14.82;;
21034;SDS011;10676;50.848;3.272;2023-05-20T11:03:27;15.68;;;14.18;;
21034;SDS011;10676;50.848;3.272;2023-05-20T11:05:54;15.32;;;13.90;;
21034;SDS011;10676;50.848;3.272;2023-05-20T11:08:19;15.80;;;14.70;;
21034;SDS011;10676;50.848;3.272;2023-05-20T11:10:45;16.17;;;15.07;;
21034;SDS011;10676;50.848;3.272;2023-05-20T11:13:11;16.95;;;15.75;;
21034;SDS011;10676;50.848;3.272;2023-05-20T11:15:38;15.85;;;14.50;;
21034;SDS011;10676;50.848;3.272;2023-05-20T11:18:04;15.95;;;14.73;;
21034;SDS011;10676;50.848;3.272;2023-05-20T11:20:30;15.88;;;14.57;;
21034;SDS011;10676;50.848;3.272;2023-05-20T11:22:59;15.18;;;14.23;;
21034;SDS011;10676;50.848;3.272;2023-05-20T11:25:26;17.05;;;15.40;;
21034;SDS011;10676;50.848;3.272;2023-05-20T11:27:52;15.10;;;14.20;;
21034;SDS011;10676;50.848;3.272;2023-05-20T11:30:18;17.00;;;15.35;;
21034;SDS011;10676;50.848;3.272;2023-05-20T11:33:00;17.45;;;16.00;;
21034;SDS011;10676;50.848;3.272;2023-05-20T11:35:28;16.55;;;15.18;;
21034;SDS011;10676;50.848;3.272;2023-05-20T11:38:03;15.95;;;14.70;;
21034;SDS011;10676;50.848;3.272;2023-05-20T11:40:30;16.15;;;14.85;;
21034;SDS011;10676;50.848;3.272;2023-05-20T11:42:58;15.85;;;13.90;;
21034;SDS011;10676;50.848;3.272;2023-05-20T11:45:25;15.63;;;14.32;;
21034;SDS011;10676;50.848;3.272;2023-05-20T11:48:03;13.05;;;12.15;;
21034;SDS011;10676;50.848;3.272;2023-05-20T11:50:39;14.18;;;13.05;;
21034;SDS011;10676;50.848;3.272;2023-05-20T11:53:07;12.75;;;11.70;;
21034;SDS011;10676;50.848;3.272;2023-05-20T11:55:42;13.02;;;12.02;;
21034;SDS011;10676;50.848;3.272;2023-05-20T11:58:10;13.25;;;11.98;;
21034;SDS011;10676;50.848;3.272;2023-05-20T12:00:36;15.32;;;12.25;;
21034;SDS011;10676;50.848;3.272;2023-05-20T12:03:02;14.18;;;13.13;;
21034;SDS011;10676;50.848;3.272;2023-05-20T12:05:27;13.48;;;12.57;;
21034;SDS011;10676;50.848;3.272;2023-05-20T12:07:53;13.32;;;12.30;;
21034;SDS011;10676;50.848;3.272;2023-05-20T12:10:19;13.45;;;12.52;;
21034;SDS011;10676;50.848;3.272;2023-05-20T12:12:44;12.98;;;11.90;;
21034;SDS011;10676;50.848;3.272;2023-05-20T12:15:10;12.85;;;11.85;;
21034;SDS011;10676;50.848;3.272;2023-05-20T12:17:46;12.30;;;11.40;;
21034;SDS011;10676;50.848;3.272;2023-05-20T12:20:13;12.27;;;11.10;;
21034;SDS011;10676;50.848;3.272;2023-05-20T12:22:41;12.38;;;11.13;;
21034;SDS011;10676;50.848;3.272;2023-05-20T12:25:10;12.90;;;11.75;;
21034;SDS011;10676;50.848;3.272;2023-05-20T12:27:38;12.65;;;11.68;;
21034;SDS011;10676;50.848;3.272;2023-05-20T12:30:05;11.77;;;10.98;;
21034;SDS011;10676;50.848;3.272;2023-05-20T12:32:31;12.68;;;11.35;;
21034;SDS011;10676;50.848;3.272;2023-05-20T12:34:57;11.57;;;10.82;;
21034;SDS011;10676;50.848;3.272;2023-05-20T12:37:23;11.98;;;11.05;;
21034;SDS011;10676;50.848;3.272;2023-05-20T12:39:48;18.58;;;13.07;;
21034;SDS011;10676;50.848;3.272;2023-05-20T12:42:14;12.40;;;11.57;;
21034;SDS011;10676;50.848;3.272;2023-05-20T12:44:40;11.73;;;10.88;;
21034;SDS011;10676;50.848;3.272;2023-05-20T12:47:07;11.35;;;10.48;;
21034;SDS011;10676;50.848;3.272;2023-05-20T12:49:33;12.18;;;11.20;;
21034;SDS011;10676;50.848;3.272;2023-05-20T12:51:59;12.48;;;11.07;;
21034;SDS011;10676;50.848;3.272;2023-05-20T12:54:24;11.05;;;10.10;;
21034;SDS011;10676;50.848;3.272;2023-05-20T12:56:52;12.48;;;11.27;;
21034;SDS011;10676;50.848;3.272;2023-05-20T12:59:21;12.55;;;11.70;;
21034;SDS011;10676;50.848;3.272;2023-05-20T13:01:47;12.52;;;11.63;;
21034;SDS011;10676;50.848;3.272;2023-05-20T13:04:13;12.23;;;11.35;;
21034;SDS011;10676;50.848;3.272;2023-05-20T13:06:38;12.98;;;11.70;;
21034;SDS011;10676;50.848;3.272;2023-05-20T13:09:04;12.65;;;11.82;;
21034;SDS011;10676;50.848;3.272;2023-05-20T13:11:30;13.70;;;12.52;;
21034;SDS011;10676;50.848;3.272;2023-05-20T13:13:56;12.18;;;11.38;;
21034;SDS011;10676;50.848;3.272;2023-05-20T13:16:22;12.88;;;11.63;;
21034;SDS011;10676;50.848;3.272;2023-05-20T13:18:48;13.10;;;12.00;;
21034;SDS011;10676;50.848;3.272;2023-05-20T13:21:14;13.82;;;11.80;;
21034;SDS011;10676;50.848;3.272;2023-05-20T13:23:40;11.73;;;10.88;;
21034;SDS011;10676;50.848;3.272;2023-05-20T13:26:06;12.10;;;11.10;;
21034;SDS011;10676;50.848;3.272;2023-05-20T13:28:33;12.40;;;11.10;;
21034;SDS011;10676;50.848;3.272;2023-05-20T13:31:00;11.65;;;10.82;;
21034;SDS011;10676;50.848;3.272;2023-05-20T13:33:26;11.45;;;10.52;;
21034;SDS011;10676;50.848;3.272;2023-05-20T13:35:53;10.65;;;9.68;;
21034;SDS011;10676;50.848;3.272;2023-05-20T13:38:18;11.02;;;9.98;;
21034;SDS011;10676;50.848;3.272;2023-05-20T13:40:45;11.38;;;10.48;;
21034;SDS011;10676;50.848;3.272;2023-05-20T13:43:11;11.25;;;10.43;;
21034;SDS011;10676;50.848;3.272;2023-05-20T13:45:36;10.98;;;10.15;;
21034;SDS011;10676;50.848;3.272;2023-05-20T13:48:02;9.82;;;9.23;;
21034;SDS011;10676;50.848;3.272;2023-05-20T13:50:27;10.35;;;9.68;;
21034;SDS011;10676;50.848;3.272;2023-05-20T13:52:53;10.82;;;10.13;;
21034;SDS011;10676;50.848;3.272;2023-05-20T13:55:19;10.23;;;9.43;;
21034;SDS011;10676;50.848;3.272;2023-05-20T13:57:45;10.73;;;9.85;;
21034;SDS011;10676;50.848;3.272;2023-05-20T14:00:11;10.80;;;10.00;;
21034;SDS011;10676;50.848;3.272;2023-05-20T14:02:37;14.07;;;9.95;;
21034;SDS011;10676;50.848;3.272;2023-05-20T14:05:04;10.27;;;9.35;;
21034;SDS011;10676;50.848;3.272;2023-05-20T14:07:31;10.48;;;9.57;;
21034;SDS011;10676;50.848;3.272;2023-05-20T14:09:57;11.95;;;11.02;;
21034;SDS011;10676;50.848;3.272;2023-05-20T14:12:22;10.65;;;9.90;;
21034;SDS011;10676;50.848;3.272;2023-05-20T14:14:48;10.38;;;9.60;;
21034;SDS011;10676;50.848;3.272;2023-05-20T14:17:14;12.30;;;11.23;;
21034;SDS011;10676;50.848;3.272;2023-05-20T14:19:40;13.85;;;12.48;;
21034;SDS011;10676;50.848;3.272;2023-05-20T14:22:06;12.18;;;11.27;;
21034;SDS011;10676;50.848;3.272;2023-05-20T14:24:32;11.65;;;10.95;;
21034;SDS011;10676;50.848;3.272;2023-05-20T14:26:57;13.07;;;12.07;;